Time;durP1;ratioP1;P1;durP2;ratioP2;P2;SDS_P1;SDS_P2;PMS_P1;PMS_P2;Temp;Humidity;BMP_temperature;BMP_pressure;BME280_temperature;BME280_humidity;BME280_pressure;Samples;Min_cycle;Max_cycle;Signal;HPM_P1;HPM_P2
2023/06/11 00:01:19;;;;;;;4.80;3.70;;;;;;;21.90;57.50;99918.54;105956;1256;64568;-74
2023/06/11 00:03:46;;;;;;;5.80;3.50;;;;;;;21.87;57.71;99914.26;105936;1251;62918;-75
2023/06/11 00:06:17;;;;;;;6.00;3.70;;;;;;;21.83;57.84;99913.69;105939;1256;62972;-75
2023/06/11 00:08:48;;;;;;;8.20;4.20;;;;;;;21.80;57.98;99915.91;105735;1253;61311;-72
2023/06/11 00:11:15;;;;;;;4.80;3.60;;;;;;;21.76;58.18;99913.92;105678;1254;61304;-72
2023/06/11 00:13:42;;;;;;;4.30;3.70;;;;;;;21.72;58.41;99912.22;105913;1256;65982;-73
2023/06/11 00:16:08;;;;;;;5.30;3.90;;;;;;;21.67;58.42;99906.88;105820;1253;61305;-74
2023/06/11 00:18:35;;;;;;;4.80;3.60;;;;;;;21.65;58.56;99905.77;105941;1256;64096;-74
2023/06/11 00:21:02;;;;;;;5.00;3.50;;;;;;;21.62;58.77;99904.33;105971;1256;61349;-75
2023/06/11 00:23:29;;;;;;;5.30;3.40;;;;;;;21.62;58.67;99902.06;105954;1253;61231;-74
2023/06/11 00:25:57;;;;;;;5.30;3.80;;;;;;;21.63;58.82;99898.46;106360;1255;65822;-73
2023/06/11 00:28:24;;;;;;;5.60;3.80;;;;;;;21.60;58.81;99899.18;105997;1258;61189;-74
2023/06/11 00:30:50;;;;;;;8.50;3.80;;;;;;;21.57;59.01;99900.55;105949;1254;63888;-73
2023/06/11 00:33:17;;;;;;;10.30;3.70;;;;;;;21.54;59.12;99907.11;106100;1255;61254;-72
2023/06/11 00:35:44;;;;;;;8.00;3.90;;;;;;;21.52;59.25;99909.98;105686;1251;61334;-73
2023/06/11 00:38:11;;;;;;;4.30;3.60;;;;;;;21.52;59.38;99904.59;105584;1259;65941;-73
2023/06/11 00:40:38;;;;;;;7.60;3.50;;;;;;;21.53;59.42;99902.70;105944;1254;61343;-72
2023/06/11 00:43:04;;;;;;;4.50;3.50;;;;;;;21.52;59.38;99904.98;105843;1255;61270;-73
2023/06/11 00:45:32;;;;;;;4.70;3.80;;;;;;;21.51;59.37;99905.12;106195;1254;61109;-74
2023/06/11 00:47:59;;;;;;;4.80;3.60;;;;;;;21.51;59.26;99905.36;105827;1256;61340;-73
2023/06/11 00:50:28;;;;;;;5.00;3.40;;;;;;;21.51;59.32;99902.67;105891;1254;66017;-73
2023/06/11 00:52:55;;;;;;;5.80;3.30;;;;;;;21.49;59.25;99896.55;105880;1259;61224;-72
2023/06/11 00:55:22;;;;;;;4.60;3.10;;;;;;;21.49;59.19;99898.75;106001;1256;62960;-71
2023/06/11 00:57:49;;;;;;;5.70;3.50;;;;;;;21.48;59.29;99901.39;106035;1256;62526;-71
2023/06/11 01:00:17;;;;;;;6.50;3.40;;;;;;;21.47;59.12;99900.33;105997;1256;61132;-71
2023/06/11 01:03:11;;;;;;;5.20;3.20;;;;;;;21.48;59.01;99910.70;106027;1256;65876;-71
2023/06/11 01:05:43;;;;;;;3.70;3.30;;;;;;;21.47;59.01;99910.28;106085;1255;61358;-74
2023/06/11 01:08:17;;;;;;;6.40;3.50;;;;;;;21.45;58.97;99911.12;105980;1256;64131;-73
2023/06/11 01:10:47;;;;;;;4.90;3.30;;;;;;;21.43;58.92;99908.38;105803;1253;61256;-75
2023/06/11 01:13:13;;;;;;;5.00;3.40;;;;;;;21.41;59.08;99910.23;105671;1252;61277;-70
2023/06/11 01:15:40;;;;;;;6.10;3.60;;;;;;;21.40;59.08;99903.94;105661;1256;66112;-71
2023/06/11 01:18:18;;;;;;;5.80;3.60;;;;;;;21.39;59.19;99901.34;105784;1256;61224;-70
2023/06/11 01:20:58;;;;;;;6.60;3.40;;;;;;;21.38;59.11;99902.08;105825;1251;63958;-71
2023/06/11 01:23:33;;;;;;;3.80;3.40;;;;;;;21.35;59.00;99892.62;105722;1256;61296;-71
2023/06/11 01:26:12;;;;;;;5.70;3.40;;;;;;;21.31;59.15;99897.11;105885;1259;61318;-71
2023/06/11 01:28:39;;;;;;;4.20;3.10;;;;;;;21.28;59.22;99895.70;105976;1255;66069;-71
2023/06/11 01:31:11;;;;;;;4.10;3.40;;;;;;;21.27;59.40;99887.13;105932;1256;61427;-70
2023/06/11 01:33:38;;;;;;;4.10;3.50;;;;;;;21.25;59.43;99890.13;105782;1257;63778;-71
2023/06/11 01:36:10;;;;;;;5.70;3.60;;;;;;;21.23;59.57;99887.88;106104;1256;61369;-70
2023/06/11 01:38:44;;;;;;;4.10;3.40;;;;;;;21.21;59.58;99887.23;106194;1256;60141;-70
2023/06/11 01:41:16;;;;;;;5.50;3.80;;;;;;;21.18;59.67;99885.88;105895;1256;64915;-70
2023/06/11 01:43:44;;;;;;;5.20;3.90;;;;;;;21.14;59.73;99883.44;105962;1255;61345;-70
2023/06/11 01:46:11;;;;;;;6.10;4.00;;;;;;;21.08;59.73;99878.17;105919;1257;61353;-71
2023/06/11 01:48:38;;;;;;;5.40;3.70;;;;;;;21.04;59.86;99882.86;105840;1256;61226;-69
2023/06/11 01:51:04;;;;;;;5.20;4.10;;;;;;;21.01;60.10;99883.60;105797;1258;61241;-70
2023/06/11 01:53:31;;;;;;;5.30;3.70;;;;;;;20.99;60.16;99886.40;105938;1256;66010;-71
2023/06/11 01:56:00;;;;;;;8.40;4.00;;;;;;;20.97;60.11;99883.92;106023;1255;61221;-71
2023/06/11 01:58:29;;;;;;;4.80;3.60;;;;;;;20.95;60.35;99883.02;105913;1251;62819;-71
2023/06/11 02:00:58;;;;;;;5.10;4.20;;;;;;;20.92;60.36;99886.83;105723;1255;61429;-71
2023/06/11 02:03:25;;;;;;;5.40;4.00;;;;;;;20.91;60.43;99890.24;106030;1254;61327;-71
2023/06/11 02:05:52;;;;;;;6.40;3.90;;;;;;;20.93;60.43;99885.55;105975;1257;64654;-71
2023/06/11 02:08:19;;;;;;;7.00;4.30;;;;;;;20.93;60.51;99888.84;105606;1257;61256;-71
2023/06/11 02:10:46;;;;;;;5.70;3.90;;;;;;;20.90;60.40;99887.27;105744;1257;63855;-70
2023/06/11 02:13:13;;;;;;;4.80;4.00;;;;;;;20.86;60.42;99889.95;105820;1251;61257;-70
2023/06/11 02:15:40;;;;;;;6.20;4.40;;;;;;;20.83;60.50;99887.41;105841;1251;61280;-71
2023/06/11 02:18:06;;;;;;;6.60;4.30;;;;;;;20.80;60.63;99895.49;105628;1258;66065;-71
2023/06/11 02:20:33;;;;;;;5.00;4.20;;;;;;;20.77;60.68;99897.13;105723;1257;61273;-70
2023/06/11 02:23:02;;;;;;;6.80;4.30;;;;;;;20.73;60.73;99893.18;105710;1257;63681;-74
2023/06/11 02:25:29;;;;;;;7.80;4.10;;;;;;;20.73;60.72;99890.91;105998;1256;61224;-73
2023/06/11 02:27:55;;;;;;;5.70;4.50;;;;;;;20.74;60.68;99885.05;105949;1251;61279;-71
2023/06/11 02:30:23;;;;;;;5.70;4.80;;;;;;;20.73;60.62;99886.20;105646;1253;64580;-71
2023/06/11 02:32:49;;;;;;;5.40;4.30;;;;;;;20.73;60.77;99888.23;105661;1259;61343;-71
2023/06/11 02:35:16;;;;;;;5.10;4.10;;;;;;;20.72;60.73;99889.34;106027;1256;63998;-70
2023/06/11 02:37:43;;;;;;;5.20;4.30;;;;;;;20.72;60.85;99893.97;105777;1253;61433;-71
2023/06/11 02:40:10;;;;;;;5.50;4.40;;;;;;;20.73;60.74;99891.73;106165;1255;61215;-71
2023/06/11 02:42:37;;;;;;;6.60;4.60;;;;;;;20.72;60.69;99895.52;105923;1256;64644;-74
2023/06/11 02:45:04;;;;;;;5.50;4.60;;;;;;;20.68;60.64;99892.80;106174;1256;61352;-72
2023/06/11 02:47:31;;;;;;;4.80;4.20;;;;;;;20.64;60.67;99891.15;106152;1256;63924;-74
2023/06/11 02:49:58;;;;;;;5.10;4.30;;;;;;;20.63;60.73;99892.22;105894;1257;61325;-74
2023/06/11 02:52:24;;;;;;;6.20;4.90;;;;;;;20.61;60.75;99890.70;106096;1251;61316;-73
2023/06/11 02:54:51;;;;;;;8.00;5.10;;;;;;;20.59;60.67;99887.84;105726;1256;67089;-73
2023/06/11 02:57:18;;;;;;;7.20;4.60;;;;;;;20.60;60.63;99887.05;105750;1259;61139;-73
2023/06/11 02:59:45;;;;;;;5.80;4.30;;;;;;;20.61;60.65;99887.59;105714;1258;62659;-72
2023/06/11 03:02:12;;;;;;;5.40;4.50;;;;;;;20.62;60.71;99885.94;105619;1251;61279;-72
2023/06/11 03:04:38;;;;;;;6.30;4.80;;;;;;;20.63;60.47;99890.40;105776;1251;61247;-72
2023/06/11 03:07:05;;;;;;;6.90;4.70;;;;;;;20.64;60.39;99893.91;105764;1266;65835;-73
2023/06/11 03:09:33;;;;;;;6.80;4.90;;;;;;;20.64;60.41;99897.22;105679;1256;61250;-73
2023/06/11 03:11:59;;;;;;;7.60;4.90;;;;;;;20.64;60.43;99892.77;106018;1256;63709;-73
2023/06/11 03:14:27;;;;;;;6.90;4.60;;;;;;;20.65;60.34;99890.70;106029;1257;61279;-76
2023/06/11 03:16:53;;;;;;;6.50;4.80;;;;;;;20.67;60.36;99889.54;106088;1251;61246;-74
2023/06/11 03:19:20;;;;;;;6.80;5.00;;;;;;;20.68;60.22;99886.15;105862;1257;65747;-72
2023/06/11 03:21:47;;;;;;;6.60;4.60;;;;;;;20.69;60.03;99888.71;105771;1251;61189;-71
2023/06/11 03:24:14;;;;;;;6.10;5.00;;;;;;;20.69;60.02;99886.94;105960;1257;63974;-71
2023/06/11 03:26:42;;;;;;;6.20;4.70;;;;;;;20.69;59.94;99882.56;105538;1254;61350;-71
2023/06/11 03:29:09;;;;;;;7.60;4.70;;;;;;;20.70;59.93;99881.08;105602;1260;61167;-72
2023/06/11 03:31:43;;;;;;;8.40;5.00;;;;;;;20.69;59.74;99883.27;105807;1261;65951;-73
2023/06/11 03:34:10;;;;;;;6.20;4.70;;;;;;;20.69;59.81;99879.05;105875;1257;61401;-74
2023/06/11 03:36:37;;;;;;;7.00;4.70;;;;;;;20.70;59.69;99877.73;105696;1254;64042;-73
2023/06/11 03:39:06;;;;;;;6.30;4.90;;;;;;;20.71;59.61;99877.56;105743;1255;61464;-73
2023/06/11 03:41:33;;;;;;;5.80;4.80;;;;;;;20.70;59.66;99877.23;105771;1256;61315;-74
2023/06/11 03:44:00;;;;;;;8.00;4.90;;;;;;;20.71;59.60;99884.26;105535;1254;64652;-74
2023/06/11 03:46:27;;;;;;;9.10;5.00;;;;;;;20.74;59.38;99883.45;105857;1254;62196;-77
2023/06/11 03:48:54;;;;;;;7.20;5.00;;;;;;;20.77;59.12;99882.84;105827;1257;63923;-74
2023/06/11 03:51:21;;;;;;;6.60;4.80;;;;;;;20.81;59.21;99887.85;105882;1251;61424;-74
2023/06/11 03:53:48;;;;;;;6.70;4.90;;;;;;;20.84;58.98;99888.54;105711;1260;61131;-74
2023/06/11 03:56:17;;;;;;;7.80;4.90;;;;;;;20.87;58.76;99892.59;105739;1259;66017;-74
2023/06/11 03:58:44;;;;;;;7.10;4.90;;;;;;;20.90;58.55;99898.34;106110;1253;61243;-74
2023/06/11 04:01:10;;;;;;;6.60;4.80;;;;;;;20.90;58.27;99896.11;106166;1256;64804;-74
2023/06/11 04:03:38;;;;;;;11.40;5.10;;;;;;;20.94;58.17;99898.28;105779;1251;61214;-75
2023/06/11 04:06:05;;;;;;;6.20;4.50;;;;;;;21.00;58.08;99894.70;105927;1257;61317;-74
2023/06/11 04:08:33;;;;;;;5.20;4.70;;;;;;;21.04;57.85;99897.98;105661;1258;65883;-73
2023/06/11 04:11:00;;;;;;;5.60;4.60;;;;;;;21.06;57.59;99898.13;105802;1252;61262;-73
2023/06/11 04:13:27;;;;;;;5.70;4.30;;;;;;;21.12;57.40;99900.73;106153;1251;63717;-74
2023/06/11 04:15:54;;;;;;;6.60;4.50;;;;;;;21.17;57.12;99899.80;105916;1257;61323;-72
2023/06/11 04:18:21;;;;;;;6.60;4.30;;;;;;;21.20;56.59;99894.07;106229;1251;61260;-74
2023/06/11 04:20:50;;;;;;;8.40;4.20;;;;;;;21.22;56.40;99895.59;105811;1254;65799;-73
2023/06/11 04:23:20;;;;;;;8.70;4.40;;;;;;;21.27;56.54;99893.86;105680;1254;61335;-75
2023/06/11 04:25:48;;;;;;;5.70;4.20;;;;;;;21.31;56.14;99895.03;106264;1254;63958;-73
2023/06/11 04:28:17;;;;;;;10.10;4.50;;;;;;;21.34;56.06;99898.98;106230;1256;61349;-75
2023/06/11 04:30:46;;;;;;;6.80;4.30;;;;;;;21.41;55.68;99904.73;106068;1252;61240;-73
2023/06/11 04:33:15;;;;;;;10.90;4.20;;;;;;;21.47;55.56;99902.14;106087;1251;64652;-74
2023/06/11 04:35:43;;;;;;;6.40;4.10;;;;;;;21.52;55.20;99908.39;105691;1257;61205;-73
2023/06/11 04:38:10;;;;;;;7.00;4.10;;;;;;;21.59;55.14;99904.39;106310;1256;63994;-71
2023/06/11 04:40:40;;;;;;;9.30;4.00;;;;;;;21.68;54.97;99904.32;105902;1251;61259;-73
2023/06/11 04:43:07;;;;;;;7.70;4.20;;;;;;;21.76;54.77;99905.77;105886;1252;61218;-74
2023/06/11 04:45:34;;;;;;;8.80;4.00;;;;;;;21.83;54.43;99902.59;105999;1253;66011;-75
2023/06/11 04:48:03;;;;;;;5.70;4.20;;;;;;;21.88;54.12;99904.83;105837;1251;61321;-70
2023/06/11 04:50:31;;;;;;;7.40;4.00;;;;;;;21.89;53.75;99910.16;105921;1254;64268;-73
2023/06/11 04:53:01;;;;;;;8.30;3.80;;;;;;;21.91;53.46;99913.90;106008;1251;61157;-75
2023/06/11 04:55:32;;;;;;;4.80;3.80;;;;;;;21.94;53.45;99917.83;105904;1251;61299;-75
2023/06/11 04:58:00;;;;;;;5.40;3.70;;;;;;;22.00;53.34;99918.48;105854;1257;66069;-75
2023/06/11 05:00:29;;;;;;;5.00;3.80;;;;;;;22.09;53.32;99922.48;106009;1254;61373;-74
2023/06/11 05:03:01;;;;;;;6.20;3.30;;;;;;;22.18;53.23;99927.69;106128;1251;62667;-71
2023/06/11 05:05:31;;;;;;;8.50;3.00;;;;;;;22.25;52.91;99925.79;105986;1251;61311;-73
2023/06/11 05:07:58;;;;;;;5.80;3.40;;;;;;;22.34;52.68;99922.63;105892;1256;61205;-75
2023/06/11 05:10:25;;;;;;;7.30;3.60;;;;;;;22.41;52.55;99921.05;105692;1251;64581;-72
2023/06/11 05:12:52;;;;;;;6.80;3.50;;;;;;;22.45;52.10;99924.30;105939;1256;61273;-74
2023/06/11 05:15:19;;;;;;;7.00;3.40;;;;;;;22.49;51.83;99924.26;105659;1251;64264;-74
2023/06/11 05:17:46;;;;;;;7.40;3.50;;;;;;;22.54;51.12;99925.02;105860;1251;61287;-75
2023/06/11 05:20:14;;;;;;;5.00;3.40;;;;;;;22.57;50.69;99923.40;105861;1251;61567;-77
2023/06/11 05:22:42;;;;;;;5.90;3.50;;;;;;;22.62;50.65;99924.19;105939;1253;65985;-74
2023/06/11 05:25:14;;;;;;;10.00;3.00;;;;;;;22.70;50.84;99924.98;106124;1251;61301;-77
2023/06/11 05:27:41;;;;;;;8.20;3.30;;;;;;;22.79;50.53;99921.61;106073;1257;63922;-78
2023/06/11 05:30:09;;;;;;;6.30;2.90;;;;;;;22.84;49.74;99925.42;105971;1256;61311;-76
2023/06/11 05:32:36;;;;;;;7.70;3.20;;;;;;;22.84;49.42;99926.05;106113;1251;61331;-73
2023/06/11 05:35:05;;;;;;;8.90;3.20;;;;;;;22.82;49.12;99924.17;106215;1251;66215;-74
2023/06/11 05:37:32;;;;;;;7.00;3.60;;;;;;;22.78;48.98;99926.42;105995;1251;61278;-74
2023/06/11 05:39:59;;;;;;;3.50;3.00;;;;;;;22.72;49.05;99928.02;106129;1251;64011;-79
2023/06/11 05:42:26;;;;;;;7.60;3.20;;;;;;;22.65;49.18;99929.44;105998;1255;61244;-81
2023/06/11 05:44:53;;;;;;;6.20;3.20;;;;;;;22.61;49.33;99931.11;105720;1251;61234;-77
2023/06/11 05:47:20;;;;;;;5.70;3.30;;;;;;;22.58;49.31;99931.48;106065;1251;64803;-84
2023/06/11 05:49:48;;;;;;;7.70;3.30;;;;;;;22.59;49.41;99926.20;106004;1257;61319;-74
2023/06/11 05:52:16;;;;;;;6.60;3.00;;;;;;;22.62;49.27;99923.61;105926;1256;63933;-74
2023/06/11 05:54:43;;;;;;;7.00;3.00;;;;;;;22.66;49.10;99924.13;106150;1251;61362;-76
2023/06/11 05:57:20;;;;;;;5.10;3.20;;;;;;;22.69;48.82;99922.14;105952;1251;61552;-74
2023/06/11 05:59:48;;;;;;;4.40;2.80;;;;;;;22.73;48.87;99918.68;106216;1256;66287;-77
2023/06/11 06:02:15;;;;;;;5.00;3.30;;;;;;;22.81;48.95;99912.11;106164;1251;61243;-73
2023/06/11 06:04:45;;;;;;;6.70;3.10;;;;;;;22.93;48.87;99913.59;105569;1261;64153;-74
2023/06/11 06:07:12;;;;;;;5.00;3.10;;;;;;;23.03;48.57;99905.50;105549;1260;61387;-76
2023/06/11 06:09:39;;;;;;;5.70;3.00;;;;;;;23.08;47.97;99906.98;105801;1251;61286;-75
2023/06/11 06:12:07;;;;;;;4.80;3.00;;;;;;;23.14;48.03;99911.17;105848;1257;66147;-74
2023/06/11 06:14:35;;;;;;;6.40;3.10;;;;;;;23.25;47.74;99913.07;105793;1251;61360;-75
2023/06/11 06:17:02;;;;;;;5.90;3.00;;;;;;;23.36;47.82;99912.27;106084;1256;64107;-79
2023/06/11 06:19:32;;;;;;;3.20;2.60;;;;;;;23.48;47.46;99918.25;105859;1251;61307;-81
2023/06/11 06:21:59;;;;;;;6.80;3.50;;;;;;;23.59;47.28;99919.73;105969;1251;61238;-80
2023/06/11 06:24:26;;;;;;;6.80;2.90;;;;;;;23.67;46.83;99919.77;106122;1257;65892;-72
2023/06/11 06:26:56;;;;;;;5.30;3.10;;;;;;;23.76;46.78;99922.95;106015;1251;61256;-74
2023/06/11 06:29:28;;;;;;;9.40;3.30;;;;;;;23.80;46.58;99920.17;106073;1251;62592;-73
2023/06/11 06:31:55;;;;;;;4.20;3.00;;;;;;;23.82;46.53;99917.50;105765;1257;61332;-76
2023/06/11 06:34:22;;;;;;;6.10;3.10;;;;;;;23.85;46.58;99911.73;105643;1258;61254;-79
2023/06/11 06:36:50;;;;;;;10.70;3.00;;;;;;;23.89;46.55;99908.39;105781;1254;65857;-78
2023/06/11 06:39:17;;;;;;;3.90;2.70;;;;;;;23.96;46.45;99901.95;105922;1256;61252;-83
2023/06/11 06:41:43;;;;;;;4.10;2.70;;;;;;;24.03;46.11;99903.48;105854;1254;64011;-77
2023/06/11 06:44:12;;;;;;;7.60;3.00;;;;;;;24.12;46.19;99905.89;106079;1251;61190;-77
2023/06/11 06:46:39;;;;;;;5.90;2.90;;;;;;;24.21;46.03;99907.50;106862;1253;61217;-77
2023/06/11 06:49:05;;;;;;;5.30;2.80;;;;;;;24.29;45.37;99901.90;106377;1253;65984;-77
2023/06/11 06:51:32;;;;;;;5.60;2.80;;;;;;;24.35;45.42;99903.36;105774;1251;62924;-77
2023/06/11 06:53:59;;;;;;;4.70;2.90;;;;;;;24.45;45.27;99907.50;105912;1257;64364;-77
2023/06/11 06:56:26;;;;;;;5.90;2.70;;;;;;;24.51;44.80;99909.53;106010;1251;61282;-78
2023/06/11 06:58:54;;;;;;;4.40;3.00;;;;;;;24.49;44.15;99909.34;105869;1251;152628;-78
2023/06/11 07:01:21;;;;;;;5.60;2.80;;;;;;;24.46;44.46;99904.92;105834;1251;66017;-78
2023/06/11 07:03:47;;;;;;;6.80;2.80;;;;;;;24.51;44.33;99894.57;106108;1251;61241;-77
2023/06/11 07:06:15;;;;;;;7.80;2.40;;;;;;;24.59;44.36;99895.43;105941;1257;62477;-78
2023/06/11 07:08:44;;;;;;;7.50;2.90;;;;;;;24.66;44.69;99898.14;105860;1257;62029;-78
2023/06/11 07:11:10;;;;;;;5.30;3.00;;;;;;;24.72;44.50;99898.33;105812;1251;61343;-78
2023/06/11 07:13:43;;;;;;;4.40;2.60;;;;;;;24.69;43.99;99892.71;106072;1255;65930;-78
2023/06/11 07:16:10;;;;;;;5.60;2.60;;;;;;;24.62;44.28;99886.60;105663;1257;61308;-79
2023/06/11 07:18:40;;;;;;;9.30;2.70;;;;;;;24.60;44.48;99888.11;105804;1256;63826;-77
2023/06/11 07:21:08;;;;;;;9.30;3.00;;;;;;;24.60;44.09;99884.54;105929;1251;61588;-78
2023/06/11 07:23:35;;;;;;;5.60;2.80;;;;;;;24.60;43.91;99887.56;105893;1254;61247;-78
2023/06/11 07:26:03;;;;;;;8.20;2.70;;;;;;;24.62;43.97;99887.02;105732;1256;65910;-78
2023/06/11 07:28:30;;;;;;;6.60;2.60;;;;;;;24.69;44.04;99884.02;105671;1253;61352;-78
2023/06/11 07:30:57;;;;;;;5.30;2.80;;;;;;;24.79;43.98;99886.35;105696;1254;64026;-78
2023/06/11 07:33:25;;;;;;;4.00;2.60;;;;;;;24.92;44.16;99887.05;105930;1252;61400;-77
2023/06/11 07:35:54;;;;;;;5.90;2.60;;;;;;;25.07;43.54;99884.52;105590;1251;61324;-77
2023/06/11 07:38:22;;;;;;;3.20;2.60;;;;;;;25.19;42.92;99878.20;105699;1258;66176;-78
2023/06/11 07:40:49;;;;;;;4.50;2.40;;;;;;;25.29;42.87;99874.20;105690;1256;61381;-77
2023/06/11 07:43:16;;;;;;;5.40;2.80;;;;;;;25.38;42.56;99878.48;105778;1256;63929;-78
2023/06/11 07:45:43;;;;;;;7.10;2.80;;;;;;;25.44;42.55;99876.73;105835;1251;61189;-78
2023/06/11 07:48:10;;;;;;;3.20;2.50;;;;;;;25.51;42.62;99870.60;105914;1251;61152;-78
2023/06/11 07:50:38;;;;;;;4.80;2.80;;;;;;;25.60;42.01;99867.59;105914;1256;66201;-77
2023/06/11 07:53:05;;;;;;;3.90;2.80;;;;;;;25.64;41.73;99867.85;105759;1251;61276;-77
2023/06/11 07:55:31;;;;;;;7.70;2.50;;;;;;;25.72;42.19;99867.58;105743;1259;64186;-78
2023/06/11 07:57:58;;;;;;;7.00;2.60;;;;;;;25.86;42.09;99865.89;105882;1251;61119;-78
2023/06/11 08:00:25;;;;;;;4.30;2.60;;;;;;;26.02;41.75;99873.79;105969;1251;61233;-78
2023/06/11 08:02:52;;;;;;;4.00;2.60;;;;;;;26.13;41.49;99876.88;105834;1256;65792;-78
2023/06/11 08:05:20;;;;;;;3.90;2.30;;;;;;;26.21;41.01;99880.52;106188;1253;61288;-77
2023/06/11 08:07:47;;;;;;;6.90;2.60;;;;;;;26.27;41.11;99879.51;105993;1252;64332;-77
2023/06/11 08:10:14;;;;;;;5.70;2.60;;;;;;;26.38;41.05;99875.27;106051;1254;61282;-77
2023/06/11 08:12:41;;;;;;;5.90;2.80;;;;;;;26.46;40.28;99880.45;105902;1251;61388;-77
2023/06/11 08:15:08;;;;;;;5.40;2.50;;;;;;;26.46;40.07;99886.96;105888;1251;66010;-77
2023/06/11 08:17:35;;;;;;;5.20;2.50;;;;;;;26.50;40.16;99887.56;105930;1253;61360;-78
2023/06/11 08:20:06;;;;;;;6.90;2.40;;;;;;;26.56;39.71;99881.79;105892;1253;62705;-78
2023/06/11 08:22:33;;;;;;;9.70;2.50;;;;;;;26.59;39.54;99879.84;105783;1251;61195;-78
2023/06/11 08:24:59;;;;;;;7.70;2.60;;;;;;;26.63;39.85;99878.09;106092;1251;61270;-77
2023/06/11 08:27:26;;;;;;;5.70;2.30;;;;;;;26.71;39.72;99874.96;106059;1251;66074;-78
2023/06/11 08:29:53;;;;;;;6.80;2.70;;;;;;;26.76;39.48;99867.33;105996;1251;61328;-78
2023/06/11 08:32:19;;;;;;;6.70;2.40;;;;;;;26.79;39.50;99861.63;105990;1254;63945;-78
2023/06/11 08:34:46;;;;;;;5.80;2.60;;;;;;;26.84;39.37;99870.62;105934;1256;61218;-78
2023/06/11 08:37:13;;;;;;;5.30;3.20;;;;;;;26.86;39.22;99873.27;106005;1254;61369;-77
2023/06/11 08:39:39;;;;;;;7.50;2.20;;;;;;;26.87;39.06;99870.79;105946;1256;65712;-76
2023/06/11 08:42:07;;;;;;;7.10;2.90;;;;;;;26.88;39.25;99868.74;105700;1251;61366;-78
2023/06/11 08:44:35;;;;;;;6.30;2.50;;;;;;;26.97;39.25;99873.48;105788;1251;64042;-75
2023/06/11 08:47:02;;;;;;;7.20;2.40;;;;;;;27.06;38.65;99873.47;106037;1255;61254;-73
2023/06/11 08:49:28;;;;;;;9.40;2.20;;;;;;;27.08;38.50;99871.77;106106;1251;61282;-76
2023/06/11 08:51:55;;;;;;;6.90;2.30;;;;;;;27.09;38.71;99869.44;105654;1254;66155;-73
2023/06/11 08:54:21;;;;;;;4.20;2.30;;;;;;;27.16;38.63;99870.02;105645;1251;61324;-73
2023/06/11 08:56:48;;;;;;;5.60;2.20;;;;;;;27.26;38.54;99869.61;105743;1254;63840;-74
2023/06/11 08:59:16;;;;;;;3.40;2.30;;;;;;;27.29;38.11;99871.88;106049;1253;61154;-74
2023/06/11 09:01:42;;;;;;;12.00;2.60;;;;;;;27.27;38.11;99871.46;106011;1256;61215;-74
2023/06/11 09:04:09;;;;;;;8.00;2.30;;;;;;;27.22;38.22;99878.05;105851;1253;65915;-74
2023/06/11 09:06:39;;;;;;;5.90;2.40;;;;;;;27.23;38.42;99879.86;105770;1253;61260;-74
2023/06/11 09:09:07;;;;;;;5.10;2.20;;;;;;;27.33;38.32;99881.40;105684;1253;64061;-74
2023/06/11 09:11:37;;;;;;;5.90;2.20;;;;;;;27.44;38.21;99882.02;105832;1252;61152;-74
2023/06/11 09:14:05;;;;;;;3.50;2.20;;;;;;;27.50;37.82;99885.45;105608;1251;61333;-74
2023/06/11 09:16:45;;;;;;;8.20;2.20;;;;;;;27.46;37.86;99882.55;105829;1253;64682;-75
2023/06/11 09:19:14;;;;;;;4.30;2.00;;;;;;;27.39;37.75;99881.83;105860;1257;61272;-74
2023/06/11 09:21:55;;;;;;;5.30;2.10;;;;;;;27.34;37.84;99880.61;105902;1251;64074;-74
2023/06/11 09:24:23;;;;;;;5.90;2.10;;;;;;;27.41;38.18;99884.95;105752;1251;62704;-74
2023/06/11 09:26:55;;;;;;;8.30;2.20;;;;;;;27.51;37.66;99887.36;105788;1251;61835;-73
2023/06/11 09:29:23;;;;;;;9.10;2.30;;;;;;;27.50;37.54;99886.58;105614;1258;66065;-74
2023/06/11 09:32:07;;;;;;;4.50;2.00;;;;;;;27.48;37.72;99889.14;105880;1253;61341;-72
2023/06/11 09:34:56;;;;;;;5.20;2.10;;;;;;;27.56;37.35;99885.55;105617;1253;62950;-74
2023/06/11 09:37:23;;;;;;;4.10;2.00;;;;;;;27.60;37.19;99890.14;105925;1251;61262;-74
2023/06/11 09:39:50;;;;;;;5.50;2.20;;;;;;;27.61;37.17;99891.34;105894;1251;61584;-74
2023/06/11 09:42:26;;;;;;;3.60;1.90;;;;;;;27.62;37.10;99891.15;105789;1251;64635;-73
2023/06/11 09:44:59;;;;;;;4.70;2.10;;;;;;;27.67;37.40;99886.95;105890;1251;61296;-74
2023/06/11 09:47:28;;;;;;;4.40;2.10;;;;;;;27.77;37.33;99889.23;105996;1253;64028;-74
2023/06/11 09:49:55;;;;;;;5.60;2.20;;;;;;;27.84;36.93;99893.61;106003;1253;61193;-74
2023/06/11 09:52:22;;;;;;;5.70;2.10;;;;;;;27.91;37.01;99894.42;105872;1252;61200;-74
2023/06/11 09:54:50;;;;;;;2.90;1.80;;;;;;;28.01;36.38;99889.46;105868;1256;65753;-74
2023/06/11 09:57:17;;;;;;;9.00;2.00;;;;;;;28.04;36.32;99887.23;105868;1256;61350;-75
2023/06/11 09:59:45;;;;;;;6.60;2.40;;;;;;;28.10;36.50;99889.77;105901;1251;63818;-74
2023/06/11 10:02:11;;;;;;;4.70;2.20;;;;;;;28.19;36.30;99891.33;105952;1256;61206;-75
2023/06/11 10:04:38;;;;;;;9.10;2.40;;;;;;;28.22;36.16;99892.02;105844;1256;61188;-74
2023/06/11 10:07:05;;;;;;;9.20;2.10;;;;;;;28.22;36.26;99892.18;105819;1255;65858;-74
2023/06/11 10:09:32;;;;;;;6.30;1.90;;;;;;;28.30;36.63;99891.86;105880;1256;61326;-74
2023/06/11 10:11:59;;;;;;;7.50;2.10;;;;;;;28.48;36.41;99889.96;105934;1251;63998;-74
2023/06/11 10:14:26;;;;;;;2.80;2.10;;;;;;;28.60;35.55;99890.94;105943;1251;61794;-74
2023/06/11 10:16:54;;;;;;;7.90;2.40;;;;;;;28.68;35.67;99889.37;105935;1251;61295;-75
2023/06/11 10:19:26;;;;;;;4.70;2.30;;;;;;;28.78;35.78;99889.16;105905;1256;66042;-74
2023/06/11 10:21:59;;;;;;;5.40;2.10;;;;;;;28.91;35.80;99885.33;105730;1251;61336;-74
2023/06/11 10:24:27;;;;;;;7.30;2.00;;;;;;;29.05;35.41;99883.80;105818;1256;63863;-74
2023/06/11 10:27:13;;;;;;;15.50;2.30;;;;;;;29.13;35.20;99884.98;105595;1252;61245;-75
2023/06/11 10:29:48;;;;;;;6.60;2.00;;;;;;;29.23;35.29;99882.79;105773;1254;61247;-74
2023/06/11 10:32:18;;;;;;;4.10;2.00;;;;;;;29.34;34.53;99881.45;105751;1253;66014;-75
2023/06/11 10:34:55;;;;;;;4.90;1.80;;;;;;;29.29;34.25;99882.15;105687;1252;61324;-74
2023/06/11 10:37:36;;;;;;;7.70;2.20;;;;;;;29.21;34.53;99888.59;105670;1256;62620;-74
2023/06/11 10:40:05;;;;;;;6.10;1.80;;;;;;;29.25;34.58;99888.84;105733;1251;61155;-75
2023/06/11 10:42:37;;;;;;;3.50;1.70;;;;;;;29.38;34.83;99882.95;106045;1251;61261;-75
2023/06/11 10:45:12;;;;;;;4.00;1.80;;;;;;;29.60;35.06;99889.23;105860;1251;64766;-74
2023/06/11 10:47:54;;;;;;;7.40;1.90;;;;;;;29.85;34.44;99889.43;105849;1257;61324;-74
2023/06/11 10:50:25;;;;;;;5.00;1.90;;;;;;;30.13;34.27;99888.73;105748;1253;62835;-75
2023/06/11 10:52:55;;;;;;;7.00;2.00;;;;;;;30.44;33.75;99891.34;105736;1258;61336;-74
2023/06/11 10:55:23;;;;;;;3.90;1.80;;;;;;;30.58;33.07;99893.59;105938;1257;61338;-74
2023/06/11 10:57:53;;;;;;;7.80;1.80;;;;;;;30.59;32.61;99895.89;105861;1251;66072;-74
2023/06/11 11:00:20;;;;;;;5.10;2.20;;;;;;;30.46;32.59;99902.95;105915;1251;61261;-75
2023/06/11 11:02:46;;;;;;;2.90;1.70;;;;;;;30.42;32.89;99904.41;105735;1253;63894;-75
2023/06/11 11:05:13;;;;;;;4.40;1.90;;;;;;;30.48;32.83;99901.83;105822;1251;61248;-74
2023/06/11 11:07:44;;;;;;;3.00;1.80;;;;;;;30.65;32.86;99900.19;105738;1254;61241;-80
2023/06/11 11:10:12;;;;;;;7.90;2.00;;;;;;;30.87;32.35;99898.98;105871;1256;66075;-75
2023/06/11 11:12:44;;;;;;;6.80;1.90;;;;;;;30.95;32.24;99902.17;105794;1251;61351;-74
2023/06/11 11:15:12;;;;;;;10.30;1.90;;;;;;;30.93;32.28;99908.01;105860;1256;64130;-76
2023/06/11 11:17:41;;;;;;;5.20;1.90;;;;;;;30.82;32.30;99911.28;105803;1256;62895;-74
2023/06/11 11:20:19;;;;;;;5.30;2.00;;;;;;;30.66;32.16;99912.63;105829;1251;61169;-75
2023/06/11 11:22:51;;;;;;;5.90;2.00;;;;;;;30.50;32.52;99908.88;105741;1260;66066;-76
2023/06/11 11:25:28;;;;;;;8.30;2.10;;;;;;;30.41;32.47;99907.89;105780;1256;61225;-73
2023/06/11 11:27:55;;;;;;;3.60;2.00;;;;;;;30.27;32.58;99905.34;105744;1254;62570;-74
2023/06/11 11:30:22;;;;;;;7.30;1.90;;;;;;;30.11;33.26;99906.48;105736;1253;61299;-74